»·PEaware :: JBU186 KPDX-KSFO

JBU186 :: KPDX-KSFO

FLIGHT INFORMATION

Flight Status: Arrived
Operator:
JetBlue Airways
More flights by this operator :: More flights under this callsign
Pilot: Josh G. (4619)
Aircraft: AIRBUS A320
(A320)
More flights by this aircraft type
Origin: KPDX Portland Intl
United States
Destination: KSFO San Francisco Intl
United States
More flights between these airports :: More routes between these airports
Route: MINNE5 EASON Q1 ETCHY MLBEC BDEGA3
File this flight plan on PilotEdge
Remarks: Student Pilot
Altitude:
(Current/Filed)
33,000ft
Speed:
(Current/Filed)
450kts
Departed: 16-Jun-20 07:09 PM
Arrived: 16-Jun-20 08:28 PM
Distance/Time
Traveled:
478nm/1:19
Distance/Time
To Go:
Arrived

Flight Plot

Page will automatically refresh every two minutes.


Map Options




Map Legend


Flown Route
Filed Route
Departure Airport
Arrival Airport
Navaid (VOR, NDB)
Fix

Horizontal Profiles

Position Reports

Time Latitude Longitude Heading Altitude Ground
Speed
16-Jun-20 18:35 45.590202 -122.600101 120 38ft 0kts
16-Jun-20 18:36 45.590202 -122.600101 120 38ft 0kts
16-Jun-20 18:37 45.590202 -122.600101 120 38ft 0kts
16-Jun-20 18:38 45.590202 -122.600101 120 38ft 0kts
16-Jun-20 18:39 45.590202 -122.600101 120 38ft 0kts
16-Jun-20 18:40 45.590202 -122.600101 120 38ft 0kts
16-Jun-20 18:41 45.590202 -122.600101 120 38ft 0kts
16-Jun-20 18:42 45.590202 -122.600101 120 38ft 0kts
16-Jun-20 18:42 45.590202 -122.600101 120 38ft 0kts
16-Jun-20 18:44 45.590202 -122.600101 120 38ft 0kts
16-Jun-20 18:45 45.590202 -122.600101 120 38ft 0kts
16-Jun-20 18:45 45.590202 -122.600101 120 38ft 0kts
16-Jun-20 18:46 45.590202 -122.600101 120 38ft 0kts
16-Jun-20 18:47 45.590202 -122.600101 120 38ft 0kts
16-Jun-20 18:48 45.590202 -122.600101 120 38ft 0kts
16-Jun-20 18:49 45.590202 -122.600101 120 38ft 0kts
16-Jun-20 18:50 45.590202 -122.600101 120 38ft 0kts
16-Jun-20 18:51 45.590202 -122.600101 120 38ft 0kts
16-Jun-20 18:52 45.590202 -122.600101 120 38ft 0kts
16-Jun-20 18:53 45.590202 -122.600101 120 38ft 0kts
16-Jun-20 18:54 45.590202 -122.600101 120 38ft 0kts
16-Jun-20 18:55 45.590202 -122.600101 120 38ft 0kts
16-Jun-20 18:56 45.590252 -122.600217 118 38ft 2kts
16-Jun-20 18:57 45.590134 -122.601004 37 38ft 2kts
16-Jun-20 18:58 45.589581 -122.601036 323 38ft 0kts
16-Jun-20 18:59 45.589529 -122.600974 320 38ft 0kts
16-Jun-20 19:01 45.589529 -122.600974 320 38ft 0kts
16-Jun-20 19:01 45.589529 -122.600974 320 38ft 0kts
16-Jun-20 19:02 45.589529 -122.600974 320 38ft 0kts
16-Jun-20 19:03 45.591384 -122.602311 270 38ft 16kts
16-Jun-20 19:04 45.592732 -122.610426 298 38ft 28kts
16-Jun-20 19:05 45.596282 -122.620111 254 38ft 14kts
16-Jun-20 19:06 45.595882 -122.620695 207 38ft 0kts
16-Jun-20 19:07 45.595409 -122.621017 194 38ft 11kts
16-Jun-20 19:08 45.583230 -122.590760 118 463ft 185kts
16-Jun-20 19:09 45.570422 -122.514688 96 3241ft 224kts
16-Jun-20 19:10 45.556631 -122.414935 103 5585ft 282kts
16-Jun-20 19:11 45.517037 -122.323223 171 8584ft 296kts
16-Jun-20 19:12 45.434254 -122.332325 221 10972ft 322kts
16-Jun-20 19:13 45.388673 -122.452116 248 12047ft 377kts
16-Jun-20 19:14 45.344199 -122.590520 249 14032ft 393kts
16-Jun-20 19:15 45.298352 -122.733128 248 15894ft 405kts
16-Jun-20 19:16 45.243388 -122.875218 223 17572ft 427kts
16-Jun-20 19:17 45.132763 -122.950279 205 19080ft 446kts
16-Jun-20 19:18 45.017998 -123.019192 206 20435ft 457kts
16-Jun-20 19:19 44.899946 -123.090218 206 21695ft 469kts
16-Jun-20 19:20 44.776796 -123.164139 207 22813ft 479kts
16-Jun-20 19:21 44.651288 -123.239165 207 23812ft 490kts
16-Jun-20 19:22 44.522940 -123.314195 202 24761ft 503kts
16-Jun-20 19:23 44.378243 -123.324293 181 25595ft 525kts
16-Jun-20 19:24 44.229855 -123.318094 181 26417ft 534kts
16-Jun-20 19:25 44.078809 -123.312077 182 27190ft 542kts
16-Jun-20 19:26 43.926050 -123.306026 183 27852ft 551kts
16-Jun-20 19:27 43.773483 -123.299973 183 28715ft 550kts
16-Jun-20 19:28 43.621560 -123.294009 184 29556ft 549kts
16-Jun-20 19:29 43.466808 -123.287964 184 30469ft 547kts
16-Jun-20 19:30 43.314824 -123.282027 184 31654ft 538kts
16-Jun-20 19:31 43.164124 -123.276207 185 32699ft 532kts
16-Jun-20 19:32 43.015711 -123.270516 185 33231ft 526kts
16-Jun-20 19:33 42.867838 -123.264873 185 33231ft 524kts
16-Jun-20 19:34 42.721726 -123.259309 186 33229ft 523kts
16-Jun-20 19:35 42.574541 -123.253732 186 33239ft 523kts
16-Jun-20 19:36 42.428128 -123.248247 187 33248ft 523kts
16-Jun-20 19:37 42.280761 -123.242807 187 33264ft 523kts
16-Jun-20 19:38 42.132629 -123.237385 187 33263ft 524kts
16-Jun-20 19:39 41.985247 -123.231963 188 33248ft 525kts
16-Jun-20 19:40 41.839112 -123.226628 188 33241ft 516kts
16-Jun-20 19:41 41.696011 -123.221471 188 33240ft 514kts
16-Jun-20 19:42 41.554390 -123.216431 188 33239ft 512kts
16-Jun-20 19:43 41.412347 -123.211524 188 33241ft 510kts
16-Jun-20 19:44 41.270643 -123.207155 188 33210ft 507kts
16-Jun-20 19:45 41.128947 -123.203636 188 33207ft 505kts
16-Jun-20 19:46 40.988252 -123.200087 188 33212ft 503kts
16-Jun-20 19:47 40.849889 -123.196606 188 33208ft 500kts
16-Jun-20 19:48 40.712262 -123.193161 188 33182ft 497kts
16-Jun-20 19:49 40.577409 -123.189804 188 33168ft 495kts
16-Jun-20 19:50 40.440861 -123.186418 188 33171ft 493kts
16-Jun-20 19:51 40.304028 -123.183036 188 33172ft 491kts
16-Jun-20 19:52 40.167365 -123.179673 188 33151ft 490kts
16-Jun-20 19:53 40.031279 -123.176341 188 33142ft 490kts
16-Jun-20 19:54 39.896273 -123.171808 187 33149ft 484kts
16-Jun-20 19:55 39.762429 -123.165470 187 33150ft 484kts
16-Jun-20 19:56 39.632031 -123.159451 187 33132ft 484kts
16-Jun-20 19:57 39.501622 -123.153448 187 33081ft 483kts
16-Jun-20 19:58 39.371445 -123.147479 187 32500ft 481kts
16-Jun-20 19:59 39.242060 -123.141600 187 31559ft 484kts
16-Jun-20 20:00 39.110372 -123.131742 176 30613ft 497kts
16-Jun-20 20:01 38.987398 -123.050764 153 29636ft 523kts
16-Jun-20 20:02 38.869498 -122.960462 166 29041ft 515kts
16-Jun-20 20:03 38.735878 -122.917786 174 25695ft 515kts
16-Jun-20 20:04 38.604070 -122.878728 174 24584ft 471kts
16-Jun-20 20:05 38.483391 -122.843157 174 24039ft 434kts
16-Jun-20 20:06 38.369144 -122.809729 174 22426ft 427kts
16-Jun-20 20:07 38.257397 -122.777024 173 20557ft 415kts
16-Jun-20 20:08 38.145501 -122.744428 173 18656ft 404kts
16-Jun-20 20:09 38.036567 -122.712831 173 17704ft 394kts
16-Jun-20 20:10 37.930477 -122.682145 172 16873ft 385kts
16-Jun-20 20:11 37.833042 -122.643064 141 16619ft 376kts
16-Jun-20 20:12 37.774159 -122.540598 142 16382ft 357kts
16-Jun-20 20:13 37.698211 -122.459960 142 16200ft 357kts
16-Jun-20 20:14 37.622406 -122.379344 142 15768ft 351kts
16-Jun-20 20:15 37.538323 -122.322918 156 14251ft 339kts
16-Jun-20 20:16 37.458584 -122.273229 155 12962ft 298kts
16-Jun-20 20:17 37.386511 -122.237477 169 11467ft 276kts
16-Jun-20 20:18 37.314038 -122.216493 169 9856ft 264kts
16-Jun-20 20:19 37.273176 -122.160236 68 8172ft 240kts
16-Jun-20 20:21 37.322586 -122.122490 13 6512ft 222kts
16-Jun-20 20:22 37.377874 -122.121063 344 4971ft 213kts
16-Jun-20 20:23 37.436914 -122.147581 333 4210ft 242kts
16-Jun-20 20:24 37.493415 -122.182230 329 3813ft 229kts
16-Jun-20 20:25 37.548501 -122.225455 311 2504ft 237kts
16-Jun-20 20:26 37.584225 -122.293088 297 1157ft 220kts
16-Jun-20 20:27 37.607148 -122.347462 296 266ft 139kts
16-Jun-20 20:28 37.618943 -122.378041 268 21ft 18kts

Navigation Log

Ident Type
Flight plan parsing failed, navigation log unavailable